sensor_id;sensor_type;location;lat;lon;timestamp;pressure;altitude;pressure_sealevel;temperature;humidity
8298;BME280;4187;42.778;23.242;2023-03-15T00:00:43;94344.41;;;6.65;70.12
8298;BME280;4187;42.778;23.242;2023-03-15T00:03:11;94347.75;;;6.67;69.92
8298;BME280;4187;42.778;23.242;2023-03-15T00:05:41;94342.84;;;6.82;69.50
8298;BME280;4187;42.778;23.242;2023-03-15T00:08:08;94337.75;;;6.80;70.66
8298;BME280;4187;42.778;23.242;2023-03-15T00:10:39;94337.19;;;6.49;72.89
8298;BME280;4187;42.778;23.242;2023-03-15T00:13:07;94327.41;;;6.42;74.75
8298;BME280;4187;42.778;23.242;2023-03-15T00:15:42;94317.66;;;6.34;76.70
8298;BME280;4187;42.778;23.242;2023-03-15T00:18:10;94311.31;;;6.27;77.88
8298;BME280;4187;42.778;23.242;2023-03-15T00:20:37;94326.59;;;6.41;78.97
8298;BME280;4187;42.778;23.242;2023-03-15T00:23:04;94328.09;;;6.44;80.23
8298;BME280;4187;42.778;23.242;2023-03-15T00:25:31;94334.28;;;6.52;80.76
8298;BME280;4187;42.778;23.242;2023-03-15T00:27:58;94316.38;;;6.48;77.21
8298;BME280;4187;42.778;23.242;2023-03-15T00:30:25;94322.34;;;6.40;78.62
8298;BME280;4187;42.778;23.242;2023-03-15T00:32:54;94288.81;;;5.88;83.91
8298;BME280;4187;42.778;23.242;2023-03-15T00:35:21;94285.63;;;5.65;86.65
8298;BME280;4187;42.778;23.242;2023-03-15T00:37:51;94302.72;;;5.69;88.72
8298;BME280;4187;42.778;23.242;2023-03-15T00:40:19;94317.78;;;5.86;89.46
8298;BME280;4187;42.778;23.242;2023-03-15T00:42:47;94317.91;;;5.85;90.19
8298;BME280;4187;42.778;23.242;2023-03-15T00:45:16;94313.47;;;5.66;91.89
8298;BME280;4187;42.778;23.242;2023-03-15T00:47:43;94310.59;;;5.50;94.02
8298;BME280;4187;42.778;23.242;2023-03-15T00:50:12;94305.50;;;5.29;94.30
8298;BME280;4187;42.778;23.242;2023-03-15T00:52:39;94302.06;;;5.29;94.54
8298;BME280;4187;42.778;23.242;2023-03-15T00:55:09;94299.44;;;5.38;94.79
8298;BME280;4187;42.778;23.242;2023-03-15T00:57:39;94289.81;;;5.49;93.44
8298;BME280;4187;42.778;23.242;2023-03-15T01:00:08;94289.78;;;5.58;92.05
8298;BME280;4187;42.778;23.242;2023-03-15T01:02:36;94292.69;;;5.65;91.83
8298;BME280;4187;42.778;23.242;2023-03-15T01:05:05;94288.09;;;5.76;89.80
8298;BME280;4187;42.778;23.242;2023-03-15T01:07:34;94274.22;;;5.85;89.09
8298;BME280;4187;42.778;23.242;2023-03-15T01:10:03;94271.03;;;5.91;89.92
8298;BME280;4187;42.778;23.242;2023-03-15T01:12:32;94279.03;;;5.99;90.67
8298;BME280;4187;42.778;23.242;2023-03-15T01:14:59;94278.97;;;6.09;89.36
8298;BME280;4187;42.778;23.242;2023-03-15T01:17:27;94174.94;;;5.55;86.98
8298;BME280;4187;42.778;23.242;2023-03-15T01:19:54;94270.94;;;6.20;80.49
8298;BME280;4187;42.778;23.242;2023-03-15T01:22:21;94259.63;;;6.20;79.86
8298;BME280;4187;42.778;23.242;2023-03-15T01:24:50;94238.88;;;6.09;80.49
8298;BME280;4187;42.778;23.242;2023-03-15T01:27:17;94261.31;;;6.21;81.09
8298;BME280;4187;42.778;23.242;2023-03-15T01:29:44;94254.41;;;6.20;84.51
8298;BME280;4187;42.778;23.242;2023-03-15T01:32:12;94260.34;;;6.22;86.59
8298;BME280;4187;42.778;23.242;2023-03-15T01:34:39;94249.56;;;6.25;86.50
8298;BME280;4187;42.778;23.242;2023-03-15T01:37:08;94260.75;;;6.27;84.05
8298;BME280;4187;42.778;23.242;2023-03-15T01:39:39;94252.16;;;6.25;83.14
8298;BME280;4187;42.778;23.242;2023-03-15T01:42:07;94242.63;;;6.33;80.46
8298;BME280;4187;42.778;23.242;2023-03-15T01:44:49;94229.69;;;6.32;80.92
8298;BME280;4187;42.778;23.242;2023-03-15T01:47:18;94239.34;;;6.31;80.93
8298;BME280;4187;42.778;23.242;2023-03-15T01:49:47;94230.94;;;6.28;81.02
8298;BME280;4187;42.778;23.242;2023-03-15T01:52:19;94245.16;;;6.25;80.30
8298;BME280;4187;42.778;23.242;2023-03-15T01:54:49;94223.63;;;6.31;81.00
8298;BME280;4187;42.778;23.242;2023-03-15T01:57:22;94223.78;;;6.30;81.23
8298;BME280;4187;42.778;23.242;2023-03-15T01:59:53;94219.88;;;6.34;80.36
8298;BME280;4187;42.778;23.242;2023-03-15T02:02:23;94216.59;;;6.32;80.63
8298;BME280;4187;42.778;23.242;2023-03-15T02:04:53;94185.09;;;6.14;77.87
8298;BME280;4187;42.778;23.242;2023-03-15T02:07:25;94212.88;;;6.25;80.04
8298;BME280;4187;42.778;23.242;2023-03-15T02:09:57;94209.59;;;6.23;79.57
8298;BME280;4187;42.778;23.242;2023-03-15T02:12:30;94208.63;;;6.24;77.60
8298;BME280;4187;42.778;23.242;2023-03-15T02:14:58;94205.06;;;6.15;74.56
8298;BME280;4187;42.778;23.242;2023-03-15T02:17:30;94198.47;;;6.11;72.68
8298;BME280;4187;42.778;23.242;2023-03-15T02:20:08;94199.84;;;6.15;73.10
8298;BME280;4187;42.778;23.242;2023-03-15T02:22:45;94197.03;;;6.26;73.94
8298;BME280;4187;42.778;23.242;2023-03-15T02:25:21;94182.56;;;6.22;74.61
8298;BME280;4187;42.778;23.242;2023-03-15T02:27:54;94192.66;;;6.17;72.92
8298;BME280;4187;42.778;23.242;2023-03-15T02:30:22;94187.31;;;6.09;67.64
8298;BME280;4187;42.778;23.242;2023-03-15T02:32:49;94184.41;;;6.12;68.22
8298;BME280;4187;42.778;23.242;2023-03-15T02:35:22;94188.31;;;6.08;67.36
8298;BME280;4187;42.778;23.242;2023-03-15T02:37:49;94191.09;;;5.97;66.65
8298;BME280;4187;42.778;23.242;2023-03-15T02:40:18;94191.53;;;5.83;67.19
8298;BME280;4187;42.778;23.242;2023-03-15T02:42:48;94185.06;;;5.77;67.57
8298;BME280;4187;42.778;23.242;2023-03-15T02:45:19;94186.88;;;5.86;68.32
8298;BME280;4187;42.778;23.242;2023-03-15T02:47:47;94179.00;;;5.86;69.22
8298;BME280;4187;42.778;23.242;2023-03-15T02:50:15;94177.75;;;5.90;72.49
8298;BME280;4187;42.778;23.242;2023-03-15T02:52:42;94179.81;;;5.87;74.03
8298;BME280;4187;42.778;23.242;2023-03-15T02:55:09;94179.13;;;5.85;76.41
8298;BME280;4187;42.778;23.242;2023-03-15T02:57:36;94173.47;;;5.80;74.95
8298;BME280;4187;42.778;23.242;2023-03-15T03:00:03;94167.59;;;5.68;73.67
8298;BME280;4187;42.778;23.242;2023-03-15T03:02:39;94170.25;;;5.49;74.95
8298;BME280;4187;42.778;23.242;2023-03-15T03:05:07;94165.44;;;5.44;75.51
8298;BME280;4187;42.778;23.242;2023-03-15T03:07:34;94160.78;;;5.38;76.15
8298;BME280;4187;42.778;23.242;2023-03-15T03:10:02;94160.38;;;5.33;74.97
8298;BME280;4187;42.778;23.242;2023-03-15T03:12:28;94158.59;;;5.34;77.35
8298;BME280;4187;42.778;23.242;2023-03-15T03:14:55;94161.88;;;5.36;81.16
8298;BME280;4187;42.778;23.242;2023-03-15T03:17:22;94157.09;;;5.22;82.43
8298;BME280;4187;42.778;23.242;2023-03-15T03:19:50;94161.78;;;5.18;82.17
8298;BME280;4187;42.778;23.242;2023-03-15T03:22:17;94157.81;;;5.05;83.86
8298;BME280;4187;42.778;23.242;2023-03-15T03:24:44;94154.78;;;5.00;85.20
8298;BME280;4187;42.778;23.242;2023-03-15T03:27:11;94143.94;;;4.95;85.35
8298;BME280;4187;42.778;23.242;2023-03-15T03:29:39;94140.22;;;4.78;86.66
8298;BME280;4187;42.778;23.242;2023-03-15T03:32:07;94126.88;;;4.71;87.31
8298;BME280;4187;42.778;23.242;2023-03-15T03:34:34;94145.28;;;4.99;86.83
8298;BME280;4187;42.778;23.242;2023-03-15T03:37:03;94142.28;;;4.94;87.82
8298;BME280;4187;42.778;23.242;2023-03-15T03:39:30;94145.56;;;4.96;89.15
8298;BME280;4187;42.778;23.242;2023-03-15T03:41:57;94142.28;;;4.94;91.39
8298;BME280;4187;42.778;23.242;2023-03-15T03:44:23;94142.69;;;4.99;93.87
8298;BME280;4187;42.778;23.242;2023-03-15T03:46:50;94136.38;;;4.92;93.26
8298;BME280;4187;42.778;23.242;2023-03-15T03:49:17;94129.22;;;4.74;95.08
8298;BME280;4187;42.778;23.242;2023-03-15T03:51:44;94128.00;;;4.59;96.81
8298;BME280;4187;42.778;23.242;2023-03-15T03:54:12;94128.66;;;4.52;97.90
8298;BME280;4187;42.778;23.242;2023-03-15T03:56:39;94077.63;;;4.09;99.01
8298;BME280;4187;42.778;23.242;2023-03-15T03:59:05;94122.44;;;4.34;99.03
8298;BME280;4187;42.778;23.242;2023-03-15T04:01:32;94116.00;;;4.38;98.51
8298;BME280;4187;42.778;23.242;2023-03-15T04:03:59;94114.91;;;4.40;97.30
8298;BME280;4187;42.778;23.242;2023-03-15T04:06:26;94107.75;;;4.42;96.55
8298;BME280;4187;42.778;23.242;2023-03-15T04:08:52;94090.00;;;4.36;95.40
8298;BME280;4187;42.778;23.242;2023-03-15T04:11:21;94112.03;;;4.53;94.46
8298;BME280;4187;42.778;23.242;2023-03-15T04:13:51;94113.56;;;4.65;93.50
8298;BME280;4187;42.778;23.242;2023-03-15T04:16:18;94085.06;;;4.52;92.51
8298;BME280;4187;42.778;23.242;2023-03-15T04:18:45;94114.09;;;4.78;93.59
8298;BME280;4187;42.778;23.242;2023-03-15T04:21:12;94115.47;;;4.72;93.62
8298;BME280;4187;42.778;23.242;2023-03-15T04:23:39;94109.25;;;4.73;95.34
8298;BME280;4187;42.778;23.242;2023-03-15T04:26:05;94104.59;;;4.58;97.42
8298;BME280;4187;42.778;23.242;2023-03-15T04:28:34;94102.94;;;4.47;100.00
8298;BME280;4187;42.778;23.242;2023-03-15T04:31:02;94100.47;;;4.36;100.00
8298;BME280;4187;42.778;23.242;2023-03-15T04:33:29;94117.75;;;4.28;100.00
8298;BME280;4187;42.778;23.242;2023-03-15T04:35:56;94119.28;;;4.20;100.00
8298;BME280;4187;42.778;23.242;2023-03-15T04:38:23;94112.00;;;4.24;100.00
8298;BME280;4187;42.778;23.242;2023-03-15T04:40:51;94109.94;;;4.28;100.00
8298;BME280;4187;42.778;23.242;2023-03-15T04:43:19;94099.06;;;4.13;100.00
8298;BME280;4187;42.778;23.242;2023-03-15T04:45:50;94095.34;;;4.06;100.00
8298;BME280;4187;42.778;23.242;2023-03-15T04:48:17;94086.69;;;4.15;100.00
8298;BME280;4187;42.778;23.242;2023-03-15T04:50:43;94086.03;;;4.22;100.00
8298;BME280;4187;42.778;23.242;2023-03-15T04:53:10;94098.94;;;4.34;100.00
8298;BME280;4187;42.778;23.242;2023-03-15T04:55:37;94094.81;;;4.41;100.00
8298;BME280;4187;42.778;23.242;2023-03-15T04:58:04;94098.81;;;4.45;100.00
8298;BME280;4187;42.778;23.242;2023-03-15T05:00:31;94097.19;;;4.53;100.00
8298;BME280;4187;42.778;23.242;2023-03-15T05:02:59;94088.78;;;4.69;100.00
8298;BME280;4187;42.778;23.242;2023-03-15T05:05:26;94086.03;;;4.80;100.00
8298;BME280;4187;42.778;23.242;2023-03-15T05:07:53;94089.88;;;4.86;100.00
8298;BME280;4187;42.778;23.242;2023-03-15T05:10:20;94096.06;;;4.94;100.00
8298;BME280;4187;42.778;23.242;2023-03-15T05:12:47;94060.72;;;4.80;100.00
8298;BME280;4187;42.778;23.242;2023-03-15T05:15:14;94096.56;;;5.07;100.00
8298;BME280;4187;42.778;23.242;2023-03-15T05:17:41;94096.31;;;5.10;99.98
8298;BME280;4187;42.778;23.242;2023-03-15T05:20:12;94094.34;;;5.12;99.58
8298;BME280;4187;42.778;23.242;2023-03-15T05:22:40;94113.63;;;5.21;99.00
8298;BME280;4187;42.778;23.242;2023-03-15T05:25:08;94107.00;;;5.17;99.12
8298;BME280;4187;42.778;23.242;2023-03-15T05:27:35;94106.44;;;5.23;99.79
8298;BME280;4187;42.778;23.242;2023-03-15T05:30:03;94112.50;;;5.23;99.72
8298;BME280;4187;42.778;23.242;2023-03-15T05:32:32;94101.75;;;5.26;98.98
8298;BME280;4187;42.778;23.242;2023-03-15T05:35:03;94103.66;;;5.34;98.94
8298;BME280;4187;42.778;23.242;2023-03-15T05:37:31;94087.13;;;5.43;98.38
8298;BME280;4187;42.778;23.242;2023-03-15T05:40:00;94089.44;;;5.46;97.78
8298;BME280;4187;42.778;23.242;2023-03-15T05:42:26;94091.09;;;5.47;98.09
8298;BME280;4187;42.778;23.242;2023-03-15T05:44:54;94067.72;;;5.36;97.80
8298;BME280;4187;42.778;23.242;2023-03-15T05:47:22;94088.28;;;5.58;97.85
8298;BME280;4187;42.778;23.242;2023-03-15T05:49:49;94072.31;;;5.61;96.48
8298;BME280;4187;42.778;23.242;2023-03-15T05:52:16;94077.50;;;5.71;95.28
8298;BME280;4187;42.778;23.242;2023-03-15T05:54:45;94076.91;;;5.77;95.26
8298;BME280;4187;42.778;23.242;2023-03-15T05:57:11;94077.59;;;5.79;91.75
8298;BME280;4187;42.778;23.242;2023-03-15T05:59:38;94081.31;;;5.86;91.52
8298;BME280;4187;42.778;23.242;2023-03-15T06:02:05;94078.25;;;5.90;91.40
8298;BME280;4187;42.778;23.242;2023-03-15T06:04:32;94080.00;;;5.99;90.45
8298;BME280;4187;42.778;23.242;2023-03-15T06:07:00;94075.81;;;6.07;90.26
8298;BME280;4187;42.778;23.242;2023-03-15T06:09:27;94081.31;;;6.13;86.27
8298;BME280;4187;42.778;23.242;2023-03-15T06:11:55;94068.69;;;6.26;85.47
8298;BME280;4187;42.778;23.242;2023-03-15T06:14:23;94090.31;;;6.46;85.03
8298;BME280;4187;42.778;23.242;2023-03-15T06:16:50;94093.75;;;6.64;82.74
8298;BME280;4187;42.778;23.242;2023-03-15T06:19:17;94088.34;;;6.66;77.80
8298;BME280;4187;42.778;23.242;2023-03-15T06:21:43;94098.41;;;6.70;73.23
8298;BME280;4187;42.778;23.242;2023-03-15T06:24:10;94099.16;;;6.80;73.03
8298;BME280;4187;42.778;23.242;2023-03-15T06:26:37;94100.25;;;6.95;72.26
8298;BME280;4187;42.778;23.242;2023-03-15T06:29:05;94113.72;;;7.00;72.81
8298;BME280;4187;42.778;23.242;2023-03-15T06:31:32;94100.41;;;6.94;71.22
8298;BME280;4187;42.778;23.242;2023-03-15T06:33:59;94099.19;;;7.06;69.57
8298;BME280;4187;42.778;23.242;2023-03-15T06:36:26;94097.81;;;7.19;68.50
8298;BME280;4187;42.778;23.242;2023-03-15T06:38:53;94099.06;;;7.33;64.66
8298;BME280;4187;42.778;23.242;2023-03-15T06:41:20;94058.03;;;7.24;63.57
8298;BME280;4187;42.778;23.242;2023-03-15T06:43:47;94087.91;;;7.57;64.01
8298;BME280;4187;42.778;23.242;2023-03-15T06:46:15;94092.19;;;7.66;63.35
8298;BME280;4187;42.778;23.242;2023-03-15T06:48:42;94088.97;;;7.72;62.00
8298;BME280;4187;42.778;23.242;2023-03-15T06:51:08;94087.69;;;7.84;59.88
8298;BME280;4187;42.778;23.242;2023-03-15T06:53:35;94093.16;;;7.91;59.46
8298;BME280;4187;42.778;23.242;2023-03-15T06:56:02;94088.81;;;7.81;59.08
8298;BME280;4187;42.778;23.242;2023-03-15T06:58:29;94106.28;;;7.91;65.28
8298;BME280;4187;42.778;23.242;2023-03-15T07:00:56;94089.25;;;9.66;100.00
8298;BME280;4187;42.778;23.242;2023-03-15T07:03:24;94094.91;;;11.24;78.69
8298;BME280;4187;42.778;23.242;2023-03-15T07:05:51;94096.88;;;11.97;61.24
8298;BME280;4187;42.778;23.242;2023-03-15T07:08:18;94090.84;;;11.74;55.56
8298;BME280;4187;42.778;23.242;2023-03-15T07:10:45;94087.06;;;11.31;49.14
8298;BME280;4187;42.778;23.242;2023-03-15T07:13:12;94083.47;;;11.47;75.81
8298;BME280;4187;42.778;23.242;2023-03-15T07:15:39;94078.00;;;12.15;59.60
8298;BME280;4187;42.778;23.242;2023-03-15T07:18:06;94066.69;;;12.21;52.64
8298;BME280;4187;42.778;23.242;2023-03-15T07:20:35;94076.63;;;12.19;50.22
8298;BME280;4187;42.778;23.242;2023-03-15T07:23:02;94080.38;;;11.95;48.48
8298;BME280;4187;42.778;23.242;2023-03-15T07:25:28;94082.63;;;11.69;48.97
8298;BME280;4187;42.778;23.242;2023-03-15T07:27:55;94068.09;;;11.50;50.29
8298;BME280;4187;42.778;23.242;2023-03-15T07:30:22;94084.84;;;11.43;50.94
8298;BME280;4187;42.778;23.242;2023-03-15T07:32:49;94086.91;;;11.32;50.51
8298;BME280;4187;42.778;23.242;2023-03-15T07:35:16;94078.69;;;11.27;49.26
8298;BME280;4187;42.778;23.242;2023-03-15T07:37:44;94076.72;;;11.29;50.99
8298;BME280;4187;42.778;23.242;2023-03-15T07:40:12;94079.16;;;11.31;50.78
8298;BME280;4187;42.778;23.242;2023-03-15T07:42:41;94071.00;;;11.40;51.09
8298;BME280;4187;42.778;23.242;2023-03-15T07:45:08;94072.66;;;11.56;51.46
8298;BME280;4187;42.778;23.242;2023-03-15T07:47:35;94070.78;;;11.79;51.10
8298;BME280;4187;42.778;23.242;2023-03-15T07:50:03;94054.69;;;11.89;50.89
8298;BME280;4187;42.778;23.242;2023-03-15T07:52:30;94074.88;;;12.11;48.17
8298;BME280;4187;42.778;23.242;2023-03-15T07:54:58;94061.50;;;12.63;65.99
8298;BME280;4187;42.778;23.242;2023-03-15T07:57:25;94038.09;;;12.81;50.39
8298;BME280;4187;42.778;23.242;2023-03-15T07:59:52;94069.66;;;13.18;48.43
8298;BME280;4187;42.778;23.242;2023-03-15T08:02:18;94054.38;;;13.21;46.04
8298;BME280;4187;42.778;23.242;2023-03-15T08:04:45;94048.69;;;13.24;45.90
8298;BME280;4187;42.778;23.242;2023-03-15T08:07:15;94051.22;;;13.32;46.56
8298;BME280;4187;42.778;23.242;2023-03-15T08:09:41;94046.03;;;13.24;44.84
8298;BME280;4187;42.778;23.242;2023-03-15T08:12:11;94007.63;;;12.92;45.01
8298;BME280;4187;42.778;23.242;2023-03-15T08:14:38;94060.19;;;13.09;43.06
8298;BME280;4187;42.778;23.242;2023-03-15T08:17:05;94033.47;;;12.90;44.68
8298;BME280;4187;42.778;23.242;2023-03-15T08:19:36;94049.06;;;12.99;43.02
8298;BME280;4187;42.778;23.242;2023-03-15T08:22:03;94028.50;;;13.01;43.72
8298;BME280;4187;42.778;23.242;2023-03-15T08:24:31;94030.06;;;12.96;45.53
8298;BME280;4187;42.778;23.242;2023-03-15T08:26:58;94028.38;;;12.88;46.45
8298;BME280;4187;42.778;23.242;2023-03-15T08:29:26;94023.16;;;12.95;46.53
8298;BME280;4187;42.778;23.242;2023-03-15T08:31:53;94020.78;;;13.06;45.50
8298;BME280;4187;42.778;23.242;2023-03-15T08:34:20;94030.72;;;13.47;44.49
8298;BME280;4187;42.778;23.242;2023-03-15T08:36:47;93996.81;;;13.63;43.89
8298;BME280;4187;42.778;23.242;2023-03-15T08:39:14;94030.94;;;14.14;43.33
8298;BME280;4187;42.778;23.242;2023-03-15T08:41:41;94030.72;;;14.43;42.30
8298;BME280;4187;42.778;23.242;2023-03-15T08:44:08;94034.38;;;14.42;40.67
8298;BME280;4187;42.778;23.242;2023-03-15T08:46:36;94035.59;;;14.40;40.92
8298;BME280;4187;42.778;23.242;2023-03-15T08:49:03;94031.72;;;14.42;41.63
8298;BME280;4187;42.778;23.242;2023-03-15T08:51:29;94032.34;;;14.38;39.80
8298;BME280;4187;42.778;23.242;2023-03-15T08:53:56;94017.81;;;14.33;40.95
8298;BME280;4187;42.778;23.242;2023-03-15T08:56:23;94012.16;;;14.50;41.94
8298;BME280;4187;42.778;23.242;2023-03-15T08:58:50;94030.78;;;14.63;42.29
8298;BME280;4187;42.778;23.242;2023-03-15T09:01:17;94024.91;;;14.80;41.64
8298;BME280;4187;42.778;23.242;2023-03-15T09:03:45;94032.41;;;14.64;39.73
8298;BME280;4187;42.778;23.242;2023-03-15T09:06:12;94023.53;;;14.37;40.34
8298;BME280;4187;42.778;23.242;2023-03-15T09:08:39;94016.00;;;14.06;40.92
8298;BME280;4187;42.778;23.242;2023-03-15T09:11:06;94011.34;;;14.08;41.80
8298;BME280;4187;42.778;23.242;2023-03-15T09:13:33;94017.13;;;14.25;41.83
8298;BME280;4187;42.778;23.242;2023-03-15T09:15:59;94015.19;;;14.40;41.94
8298;BME280;4187;42.778;23.242;2023-03-15T09:18:27;94013.19;;;14.55;40.22
8298;BME280;4187;42.778;23.242;2023-03-15T09:20:56;94017.75;;;14.74;41.56
8298;BME280;4187;42.778;23.242;2023-03-15T09:23:22;94016.13;;;14.80;41.68
8298;BME280;4187;42.778;23.242;2023-03-15T09:25:49;94006.50;;;14.72;42.23
8298;BME280;4187;42.778;23.242;2023-03-15T09:28:16;94012.22;;;14.69;45.29
8298;BME280;4187;42.778;23.242;2023-03-15T09:30:43;94012.84;;;14.65;41.93
8298;BME280;4187;42.778;23.242;2023-03-15T09:33:09;94008.69;;;14.49;41.67
8298;BME280;4187;42.778;23.242;2023-03-15T09:35:39;93999.28;;;14.47;41.75
8298;BME280;4187;42.778;23.242;2023-03-15T09:38:08;93999.59;;;14.30;42.63
8298;BME280;4187;42.778;23.242;2023-03-15T09:40:39;93985.72;;;14.22;42.56
8298;BME280;4187;42.778;23.242;2023-03-15T09:43:33;93996.47;;;14.14;42.51
8298;BME280;4187;42.778;23.242;2023-03-15T09:46:13;93994.69;;;14.27;42.88
8298;BME280;4187;42.778;23.242;2023-03-15T09:48:49;93984.50;;;14.31;43.73
8298;BME280;4187;42.778;23.242;2023-03-15T09:51:27;93986.22;;;14.52;43.34
8298;BME280;4187;42.778;23.242;2023-03-15T09:54:00;93978.03;;;14.47;42.54
8298;BME280;4187;42.778;23.242;2023-03-15T09:56:33;93987.84;;;14.40;42.63
8298;BME280;4187;42.778;23.242;2023-03-15T09:59:01;93979.66;;;14.41;43.34
8298;BME280;4187;42.778;23.242;2023-03-15T10:01:30;93971.28;;;14.44;41.99
8298;BME280;4187;42.778;23.242;2023-03-15T10:04:03;93972.94;;;14.52;42.66
8298;BME280;4187;42.778;23.242;2023-03-15T10:06:32;93978.81;;;14.34;41.74
8298;BME280;4187;42.778;23.242;2023-03-15T10:09:03;93983.19;;;14.07;42.49
8298;BME280;4187;42.778;23.242;2023-03-15T10:11:36;93982.19;;;14.08;43.51
8298;BME280;4187;42.778;23.242;2023-03-15T10:14:16;93989.31;;;14.08;43.92
8298;BME280;4187;42.778;23.242;2023-03-15T10:16:47;93982.06;;;13.89;43.16
8298;BME280;4187;42.778;23.242;2023-03-15T10:19:20;93991.41;;;13.78;43.97
8298;BME280;4187;42.778;23.242;2023-03-15T10:21:57;93987.50;;;13.74;43.36
8298;BME280;4187;42.778;23.242;2023-03-15T10:24:33;93991.06;;;13.60;43.83
8298;BME280;4187;42.778;23.242;2023-03-15T10:27:13;93980.06;;;13.56;44.24
8298;BME280;4187;42.778;23.242;2023-03-15T10:29:40;93980.88;;;13.57;44.50
8298;BME280;4187;42.778;23.242;2023-03-15T10:32:14;93965.78;;;13.57;45.17
8298;BME280;4187;42.778;23.242;2023-03-15T10:34:43;93977.94;;;13.79;43.71
8298;BME280;4187;42.778;23.242;2023-03-15T10:37:12;93976.22;;;14.00;43.29
8298;BME280;4187;42.778;23.242;2023-03-15T10:39:40;93941.75;;;13.59;43.39
8298;BME280;4187;42.778;23.242;2023-03-15T10:42:26;93968.97;;;13.81;43.75
8298;BME280;4187;42.778;23.242;2023-03-15T10:44:53;93972.03;;;13.77;43.66
8298;BME280;4187;42.778;23.242;2023-03-15T10:47:21;93977.72;;;13.74;43.31
8298;BME280;4187;42.778;23.242;2023-03-15T10:49:49;93967.72;;;13.76;43.80
8298;BME280;4187;42.778;23.242;2023-03-15T10:52:30;93969.19;;;13.86;44.01
8298;BME280;4187;42.778;23.242;2023-03-15T10:55:03;93975.72;;;13.83;42.71
8298;BME280;4187;42.778;23.242;2023-03-15T10:57:35;93959.53;;;13.65;43.57
8298;BME280;4187;42.778;23.242;2023-03-15T11:00:19;93973.53;;;13.59;43.80
8298;BME280;4187;42.778;23.242;2023-03-15T11:02:50;93979.97;;;13.43;43.42
8298;BME280;4187;42.778;23.242;2023-03-15T11:05:18;93993.38;;;13.35;42.96
8298;BME280;4187;42.778;23.242;2023-03-15T11:07:55;93959.97;;;13.13;43.62
8298;BME280;4187;42.778;23.242;2023-03-15T11:10:25;93978.31;;;13.42;44.24
8298;BME280;4187;42.778;23.242;2023-03-15T11:13:11;93933.03;;;13.09;43.74
8298;BME280;4187;42.778;23.242;2023-03-15T11:15:39;93960.00;;;13.19;44.13
8298;BME280;4187;42.778;23.242;2023-03-15T11:18:16;93969.59;;;13.21;45.25
8298;BME280;4187;42.778;23.242;2023-03-15T11:20:44;93968.59;;;13.00;47.97
8298;BME280;4187;42.778;23.242;2023-03-15T11:23:14;93958.81;;;12.73;49.61
8298;BME280;4187;42.778;23.242;2023-03-15T11:25:43;93961.66;;;12.57;50.83
8298;BME280;4187;42.778;23.242;2023-03-15T11:28:16;93968.69;;;12.43;53.49
8298;BME280;4187;42.778;23.242;2023-03-15T11:30:44;93967.97;;;12.35;54.83
8298;BME280;4187;42.778;23.242;2023-03-15T11:33:21;93970.50;;;12.22;54.29
8298;BME280;4187;42.778;23.242;2023-03-15T11:35:52;93984.56;;;11.93;54.31
8298;BME280;4187;42.778;23.242;2023-03-15T11:38:27;93981.50;;;11.75;56.21
8298;BME280;4187;42.778;23.242;2023-03-15T11:40:59;93986.38;;;11.63;56.82
8298;BME280;4187;42.778;23.242;2023-03-15T11:43:36;93981.91;;;11.49;57.94
8298;BME280;4187;42.778;23.242;2023-03-15T11:46:10;93982.72;;;11.50;60.62
8298;BME280;4187;42.778;23.242;2023-03-15T11:48:43;93975.53;;;11.29;63.31
8298;BME280;4187;42.778;23.242;2023-03-15T11:51:13;93976.53;;;11.13;73.49
8298;BME280;4187;42.778;23.242;2023-03-15T11:53:42;93986.91;;;10.92;75.57
8298;BME280;4187;42.778;23.242;2023-03-15T11:56:23;93983.84;;;11.03;79.36
8298;BME280;4187;42.778;23.242;2023-03-15T11:59:03;93962.88;;;10.87;74.93
8298;BME280;4187;42.778;23.242;2023-03-15T12:01:32;93920.31;;;10.53;79.82
8298;BME280;4187;42.778;23.242;2023-03-15T12:04:25;93965.16;;;10.75;81.72
8298;BME280;4187;42.778;23.242;2023-03-15T12:06:53;93923.28;;;10.35;82.48
8298;BME280;4187;42.778;23.242;2023-03-15T12:09:46;93949.88;;;10.48;80.33
8298;BME280;4187;42.778;23.242;2023-03-15T12:12:37;93956.59;;;10.51;86.07
8298;BME280;4187;42.778;23.242;2023-03-15T12:18:17;93947.59;;;10.60;84.29
8298;BME280;4187;42.778;23.242;2023-03-15T12:20:49;93937.06;;;10.60;77.67
8298;BME280;4187;42.778;23.242;2023-03-15T12:23:35;93938.50;;;10.62;80.97
8298;BME280;4187;42.778;23.242;2023-03-15T12:26:09;93863.03;;;10.24;81.45
8298;BME280;4187;42.778;23.242;2023-03-15T12:28:49;93931.34;;;10.71;79.69
8298;BME280;4187;42.778;23.242;2023-03-15T12:31:17;93937.94;;;10.75;79.16
8298;BME280;4187;42.778;23.242;2023-03-15T12:33:47;93936.13;;;10.75;77.21
8298;BME280;4187;42.778;23.242;2023-03-15T12:36:29;93934.75;;;10.79;76.61
8298;BME280;4187;42.778;23.242;2023-03-15T12:39:01;93934.69;;;10.88;76.29
8298;BME280;4187;42.778;23.242;2023-03-15T12:41:37;93924.47;;;10.85;77.00
8298;BME280;4187;42.778;23.242;2023-03-15T12:44:23;93924.50;;;10.99;74.67
8298;BME280;4187;42.778;23.242;2023-03-15T12:46:57;93886.81;;;10.91;72.10
8298;BME280;4187;42.778;23.242;2023-03-15T12:49:30;93932.06;;;11.17;74.85
8298;BME280;4187;42.778;23.242;2023-03-15T12:51:59;93934.38;;;11.34;77.10
8298;BME280;4187;42.778;23.242;2023-03-15T12:54:31;93927.81;;;11.45;76.88
8298;BME280;4187;42.778;23.242;2023-03-15T12:57:01;93924.59;;;11.50;75.99
8298;BME280;4187;42.778;23.242;2023-03-15T12:59:34;93925.25;;;11.66;75.20
8298;BME280;4187;42.778;23.242;2023-03-15T13:02:21;93918.44;;;11.72;73.90
8298;BME280;4187;42.778;23.242;2023-03-15T13:04:57;93918.78;;;11.83;73.22
8298;BME280;4187;42.778;23.242;2023-03-15T13:07:33;93917.34;;;11.81;68.76
8298;BME280;4187;42.778;23.242;2023-03-15T13:10:18;93923.34;;;11.75;68.02
8298;BME280;4187;42.778;23.242;2023-03-15T13:12:56;93918.44;;;11.72;68.28
8298;BME280;4187;42.778;23.242;2023-03-15T13:15:29;93918.88;;;11.61;65.29
8298;BME280;4187;42.778;23.242;2023-03-15T13:18:03;93922.16;;;11.33;65.69
8298;BME280;4187;42.778;23.242;2023-03-15T13:20:49;93914.16;;;11.27;70.14
8298;BME280;4187;42.778;23.242;2023-03-15T13:23:19;93919.50;;;11.33;70.17
8298;BME280;4187;42.778;23.242;2023-03-15T13:26:02;93913.03;;;11.36;71.56
8298;BME280;4187;42.778;23.242;2023-03-15T13:28:38;93916.34;;;11.38;70.45
8298;BME280;4187;42.778;23.242;2023-03-15T13:31:16;93903.66;;;11.33;67.92